sensor_id;sensor_type;location;lat;lon;timestamp;temperature;humidity
9219;DHT22;4644;48.858;9.184;2024-01-11T00:00:20;-4.10;99.90
9219;DHT22;4644;48.858;9.184;2024-01-11T00:02:47;-4.10;99.90
9219;DHT22;4644;48.858;9.184;2024-01-11T00:05:16;-4.20;99.90
9219;DHT22;4644;48.858;9.184;2024-01-11T00:07:42;-4.10;99.90
9219;DHT22;4644;48.858;9.184;2024-01-11T00:10:09;-4.20;99.90
9219;DHT22;4644;48.858;9.184;2024-01-11T00:12:36;-4.20;99.90
9219;DHT22;4644;48.858;9.184;2024-01-11T00:15:04;-4.20;99.90
9219;DHT22;4644;48.858;9.184;2024-01-11T00:17:31;-4.20;99.90
9219;DHT22;4644;48.858;9.184;2024-01-11T00:19:58;-4.20;99.90
9219;DHT22;4644;48.858;9.184;2024-01-11T00:22:26;-4.20;99.90
9219;DHT22;4644;48.858;9.184;2024-01-11T00:24:53;-4.20;99.90
9219;DHT22;4644;48.858;9.184;2024-01-11T00:27:19;-4.30;99.90
9219;DHT22;4644;48.858;9.184;2024-01-11T00:29:46;-4.20;99.90
9219;DHT22;4644;48.858;9.184;2024-01-11T00:32:13;-4.20;99.90
9219;DHT22;4644;48.858;9.184;2024-01-11T00:34:40;-4.20;99.90
9219;DHT22;4644;48.858;9.184;2024-01-11T00:37:07;-4.30;99.90
9219;DHT22;4644;48.858;9.184;2024-01-11T00:39:35;-4.30;99.90
9219;DHT22;4644;48.858;9.184;2024-01-11T00:42:02;-4.30;99.90
9219;DHT22;4644;48.858;9.184;2024-01-11T00:44:29;-4.30;99.90
9219;DHT22;4644;48.858;9.184;2024-01-11T00:46:56;-4.30;99.90
9219;DHT22;4644;48.858;9.184;2024-01-11T00:49:23;-4.30;99.90
9219;DHT22;4644;48.858;9.184;2024-01-11T00:51:50;-4.30;99.90
9219;DHT22;4644;48.858;9.184;2024-01-11T00:54:17;-4.30;99.90
9219;DHT22;4644;48.858;9.184;2024-01-11T00:56:45;-4.30;99.90
9219;DHT22;4644;48.858;9.184;2024-01-11T00:59:12;-4.30;99.90
9219;DHT22;4644;48.858;9.184;2024-01-11T01:01:39;-4.30;99.90
9219;DHT22;4644;48.858;9.184;2024-01-11T01:04:06;-4.30;99.90
9219;DHT22;4644;48.858;9.184;2024-01-11T01:06:32;-4.30;99.90
9219;DHT22;4644;48.858;9.184;2024-01-11T01:08:59;-4.30;99.90
9219;DHT22;4644;48.858;9.184;2024-01-11T01:11:26;-4.40;99.90
9219;DHT22;4644;48.858;9.184;2024-01-11T01:13:54;-4.40;99.90
9219;DHT22;4644;48.858;9.184;2024-01-11T01:16:21;-4.40;99.90
9219;DHT22;4644;48.858;9.184;2024-01-11T01:18:48;-4.40;99.90
9219;DHT22;4644;48.858;9.184;2024-01-11T01:21:15;-4.40;99.90
9219;DHT22;4644;48.858;9.184;2024-01-11T01:23:42;-4.40;99.90
9219;DHT22;4644;48.858;9.184;2024-01-11T01:26:09;-4.40;99.90
9219;DHT22;4644;48.858;9.184;2024-01-11T01:28:35;-4.40;99.90
9219;DHT22;4644;48.858;9.184;2024-01-11T01:31:04;-4.40;99.90
9219;DHT22;4644;48.858;9.184;2024-01-11T01:33:31;-4.40;99.90
9219;DHT22;4644;48.858;9.184;2024-01-11T01:35:58;-4.40;99.90
9219;DHT22;4644;48.858;9.184;2024-01-11T01:38:24;-4.50;99.90
9219;DHT22;4644;48.858;9.184;2024-01-11T01:40:51;-4.50;99.90
9219;DHT22;4644;48.858;9.184;2024-01-11T01:43:18;-4.50;99.90
9219;DHT22;4644;48.858;9.184;2024-01-11T01:45:45;-4.50;99.90
9219;DHT22;4644;48.858;9.184;2024-01-11T01:48:14;-4.50;99.90
9219;DHT22;4644;48.858;9.184;2024-01-11T01:50:41;-4.50;99.90
9219;DHT22;4644;48.858;9.184;2024-01-11T01:53:11;-4.50;99.90
9219;DHT22;4644;48.858;9.184;2024-01-11T01:55:38;-4.50;99.90
9219;DHT22;4644;48.858;9.184;2024-01-11T01:58:04;-4.50;99.90
9219;DHT22;4644;48.858;9.184;2024-01-11T02:00:31;-4.50;99.90
9219;DHT22;4644;48.858;9.184;2024-01-11T02:02:58;-4.50;99.90
9219;DHT22;4644;48.858;9.184;2024-01-11T02:05:27;-4.50;99.90
9219;DHT22;4644;48.858;9.184;2024-01-11T02:07:54;-4.50;99.90
9219;DHT22;4644;48.858;9.184;2024-01-11T02:10:22;-4.60;99.90
9219;DHT22;4644;48.858;9.184;2024-01-11T02:12:50;-4.50;99.90
9219;DHT22;4644;48.858;9.184;2024-01-11T02:15:17;-4.60;99.90
9219;DHT22;4644;48.858;9.184;2024-01-11T02:17:44;-4.50;99.90
9219;DHT22;4644;48.858;9.184;2024-01-11T02:20:11;-4.60;99.90
9219;DHT22;4644;48.858;9.184;2024-01-11T02:22:42;-4.60;99.90
9219;DHT22;4644;48.858;9.184;2024-01-11T02:25:11;-4.60;99.90
9219;DHT22;4644;48.858;9.184;2024-01-11T02:27:47;-4.60;99.90
9219;DHT22;4644;48.858;9.184;2024-01-11T02:30:15;-4.60;99.90
9219;DHT22;4644;48.858;9.184;2024-01-11T02:32:43;-4.60;99.90
9219;DHT22;4644;48.858;9.184;2024-01-11T02:35:12;-4.60;99.90
9219;DHT22;4644;48.858;9.184;2024-01-11T02:37:39;-4.60;99.90
9219;DHT22;4644;48.858;9.184;2024-01-11T02:40:08;-4.70;99.90
9219;DHT22;4644;48.858;9.184;2024-01-11T02:42:36;-4.70;99.90
9219;DHT22;4644;48.858;9.184;2024-01-11T02:45:04;-4.70;99.90
9219;DHT22;4644;48.858;9.184;2024-01-11T02:47:31;-4.70;99.90
9219;DHT22;4644;48.858;9.184;2024-01-11T02:49:58;-4.70;99.90
9219;DHT22;4644;48.858;9.184;2024-01-11T02:52:25;-4.80;99.90
9219;DHT22;4644;48.858;9.184;2024-01-11T02:54:52;-4.80;99.90
9219;DHT22;4644;48.858;9.184;2024-01-11T02:57:19;-4.80;99.90
9219;DHT22;4644;48.858;9.184;2024-01-11T02:59:47;-4.80;99.90
9219;DHT22;4644;48.858;9.184;2024-01-11T03:02:14;-4.80;99.90
9219;DHT22;4644;48.858;9.184;2024-01-11T03:04:41;-4.90;99.90
9219;DHT22;4644;48.858;9.184;2024-01-11T03:07:08;-4.80;99.90
9219;DHT22;4644;48.858;9.184;2024-01-11T03:09:35;-4.90;99.90
9219;DHT22;4644;48.858;9.184;2024-01-11T03:12:03;-4.90;99.90
9219;DHT22;4644;48.858;9.184;2024-01-11T03:14:32;-4.90;99.90
9219;DHT22;4644;48.858;9.184;2024-01-11T03:17:00;-4.90;99.90
9219;DHT22;4644;48.858;9.184;2024-01-11T03:19:27;-4.90;99.90
9219;DHT22;4644;48.858;9.184;2024-01-11T03:21:54;-4.90;99.90
9219;DHT22;4644;48.858;9.184;2024-01-11T03:24:20;-4.90;99.90
9219;DHT22;4644;48.858;9.184;2024-01-11T03:26:48;-4.90;99.90
9219;DHT22;4644;48.858;9.184;2024-01-11T03:29:15;-4.90;99.90
9219;DHT22;4644;48.858;9.184;2024-01-11T03:31:42;-4.90;99.90
9219;DHT22;4644;48.858;9.184;2024-01-11T03:34:11;-5.00;99.90
9219;DHT22;4644;48.858;9.184;2024-01-11T03:36:38;-4.90;99.90
9219;DHT22;4644;48.858;9.184;2024-01-11T03:39:06;-4.90;99.90
9219;DHT22;4644;48.858;9.184;2024-01-11T03:41:33;-4.90;99.90
9219;DHT22;4644;48.858;9.184;2024-01-11T03:43:59;-5.00;99.90
9219;DHT22;4644;48.858;9.184;2024-01-11T03:46:26;-4.90;99.90
9219;DHT22;4644;48.858;9.184;2024-01-11T03:48:53;-5.00;99.90
9219;DHT22;4644;48.858;9.184;2024-01-11T03:51:22;-5.00;99.90
9219;DHT22;4644;48.858;9.184;2024-01-11T03:53:49;-5.00;99.90
9219;DHT22;4644;48.858;9.184;2024-01-11T03:56:16;-5.00;99.90
9219;DHT22;4644;48.858;9.184;2024-01-11T03:58:43;-5.00;99.90
9219;DHT22;4644;48.858;9.184;2024-01-11T04:01:10;-5.00;99.90
9219;DHT22;4644;48.858;9.184;2024-01-11T04:03:37;-5.00;99.90
9219;DHT22;4644;48.858;9.184;2024-01-11T04:06:04;-5.00;99.90
9219;DHT22;4644;48.858;9.184;2024-01-11T04:08:33;-5.00;99.90
9219;DHT22;4644;48.858;9.184;2024-01-11T04:11:02;-5.00;99.90
9219;DHT22;4644;48.858;9.184;2024-01-11T04:13:29;-5.00;99.90
9219;DHT22;4644;48.858;9.184;2024-01-11T04:15:56;-5.00;99.90
9219;DHT22;4644;48.858;9.184;2024-01-11T04:18:23;-5.00;99.90
9219;DHT22;4644;48.858;9.184;2024-01-11T04:20:50;-5.10;99.90
9219;DHT22;4644;48.858;9.184;2024-01-11T04:23:16;-5.10;99.90
9219;DHT22;4644;48.858;9.184;2024-01-11T04:25:45;-5.10;99.90
9219;DHT22;4644;48.858;9.184;2024-01-11T04:28:12;-5.00;99.90
9219;DHT22;4644;48.858;9.184;2024-01-11T04:30:39;-5.10;99.90
9219;DHT22;4644;48.858;9.184;2024-01-11T04:33:06;-5.10;99.90
9219;DHT22;4644;48.858;9.184;2024-01-11T04:35:32;-5.10;99.90
9219;DHT22;4644;48.858;9.184;2024-01-11T04:37:59;-5.10;99.90
9219;DHT22;4644;48.858;9.184;2024-01-11T04:40:26;-5.10;99.90
9219;DHT22;4644;48.858;9.184;2024-01-11T04:42:54;-5.10;99.90
9219;DHT22;4644;48.858;9.184;2024-01-11T04:45:21;-5.10;99.90
9219;DHT22;4644;48.858;9.184;2024-01-11T04:47:50;-5.10;99.90
9219;DHT22;4644;48.858;9.184;2024-01-11T04:50:17;-5.10;99.90
9219;DHT22;4644;48.858;9.184;2024-01-11T04:52:44;-5.00;99.90
9219;DHT22;4644;48.858;9.184;2024-01-11T04:55:11;-5.10;99.90
9219;DHT22;4644;48.858;9.184;2024-01-11T04:57:38;-5.10;99.90
9219;DHT22;4644;48.858;9.184;2024-01-11T05:00:07;-5.10;99.90
9219;DHT22;4644;48.858;9.184;2024-01-11T05:02:34;-5.10;99.90
9219;DHT22;4644;48.858;9.184;2024-01-11T05:05:01;-5.10;99.90
9219;DHT22;4644;48.858;9.184;2024-01-11T05:07:28;-5.10;99.90
9219;DHT22;4644;48.858;9.184;2024-01-11T05:09:55;-5.20;99.90
9219;DHT22;4644;48.858;9.184;2024-01-11T05:12:22;-5.20;99.90
9219;DHT22;4644;48.858;9.184;2024-01-11T05:14:49;-5.20;99.90
9219;DHT22;4644;48.858;9.184;2024-01-11T05:17:17;-5.20;99.90
9219;DHT22;4644;48.858;9.184;2024-01-11T05:19:44;-5.20;99.90
9219;DHT22;4644;48.858;9.184;2024-01-11T05:22:10;-5.20;99.90
9219;DHT22;4644;48.858;9.184;2024-01-11T05:24:37;-5.20;99.90
9219;DHT22;4644;48.858;9.184;2024-01-11T05:27:04;-5.20;99.90
9219;DHT22;4644;48.858;9.184;2024-01-11T05:29:31;-5.20;99.90
9219;DHT22;4644;48.858;9.184;2024-01-11T05:31:58;-5.20;99.90
9219;DHT22;4644;48.858;9.184;2024-01-11T05:34:26;-5.20;99.90
9219;DHT22;4644;48.858;9.184;2024-01-11T05:36:53;-5.20;99.90
9219;DHT22;4644;48.858;9.184;2024-01-11T05:39:20;-5.20;99.90
9219;DHT22;4644;48.858;9.184;2024-01-11T05:41:47;-5.20;99.90
9219;DHT22;4644;48.858;9.184;2024-01-11T05:44:14;-5.20;99.90
9219;DHT22;4644;48.858;9.184;2024-01-11T05:46:41;-5.30;99.90
9219;DHT22;4644;48.858;9.184;2024-01-11T05:49:08;-5.20;99.90
9219;DHT22;4644;48.858;9.184;2024-01-11T05:51:36;-5.30;99.90
9219;DHT22;4644;48.858;9.184;2024-01-11T05:54:03;-5.30;99.90
9219;DHT22;4644;48.858;9.184;2024-01-11T05:56:30;-5.30;99.90
9219;DHT22;4644;48.858;9.184;2024-01-11T05:58:57;-5.20;99.90
9219;DHT22;4644;48.858;9.184;2024-01-11T06:01:24;-5.30;99.90
9219;DHT22;4644;48.858;9.184;2024-01-11T06:03:51;-5.20;99.90
9219;DHT22;4644;48.858;9.184;2024-01-11T06:06:18;-5.20;99.90
9219;DHT22;4644;48.858;9.184;2024-01-11T06:08:47;-5.30;99.90
9219;DHT22;4644;48.858;9.184;2024-01-11T06:11:14;-5.30;99.90
9219;DHT22;4644;48.858;9.184;2024-01-11T06:13:43;-5.30;99.90
9219;DHT22;4644;48.858;9.184;2024-01-11T06:16:10;-5.30;99.90
9219;DHT22;4644;48.858;9.184;2024-01-11T06:18:37;-5.30;99.90
9219;DHT22;4644;48.858;9.184;2024-01-11T06:21:04;-5.30;99.90
9219;DHT22;4644;48.858;9.184;2024-01-11T06:23:31;-5.40;99.90
9219;DHT22;4644;48.858;9.184;2024-01-11T06:26:00;-5.30;99.90
9219;DHT22;4644;48.858;9.184;2024-01-11T06:28:27;-5.30;99.90
9219;DHT22;4644;48.858;9.184;2024-01-11T06:30:54;-5.40;99.90
9219;DHT22;4644;48.858;9.184;2024-01-11T06:33:21;-5.40;99.90
9219;DHT22;4644;48.858;9.184;2024-01-11T06:35:48;-5.40;99.90
9219;DHT22;4644;48.858;9.184;2024-01-11T06:38:16;-5.40;99.90
9219;DHT22;4644;48.858;9.184;2024-01-11T06:40:42;-5.40;99.90
9219;DHT22;4644;48.858;9.184;2024-01-11T06:43:11;-5.40;99.90
9219;DHT22;4644;48.858;9.184;2024-01-11T06:45:38;-5.40;99.90
9219;DHT22;4644;48.858;9.184;2024-01-11T06:48:06;-5.40;99.90
9219;DHT22;4644;48.858;9.184;2024-01-11T06:50:33;-5.40;99.90
9219;DHT22;4644;48.858;9.184;2024-01-11T06:53:00;-5.40;99.90
9219;DHT22;4644;48.858;9.184;2024-01-11T06:55:27;-5.50;99.90
9219;DHT22;4644;48.858;9.184;2024-01-11T06:57:53;-5.50;99.90
9219;DHT22;4644;48.858;9.184;2024-01-11T07:00:22;-5.50;99.90
9219;DHT22;4644;48.858;9.184;2024-01-11T07:02:49;-5.50;99.90
9219;DHT22;4644;48.858;9.184;2024-01-11T07:05:16;-5.50;99.90
9219;DHT22;4644;48.858;9.184;2024-01-11T07:07:43;-5.50;99.90
9219;DHT22;4644;48.858;9.184;2024-01-11T07:10:10;-5.50;99.90
9219;DHT22;4644;48.858;9.184;2024-01-11T07:12:38;-5.50;99.90
9219;DHT22;4644;48.858;9.184;2024-01-11T07:15:08;-5.50;99.90
9219;DHT22;4644;48.858;9.184;2024-01-11T07:17:36;-5.50;99.90
9219;DHT22;4644;48.858;9.184;2024-01-11T07:20:04;-5.50;99.90
9219;DHT22;4644;48.858;9.184;2024-01-11T07:22:31;-5.40;99.90
9219;DHT22;4644;48.858;9.184;2024-01-11T07:24:58;-5.40;99.90
9219;DHT22;4644;48.858;9.184;2024-01-11T07:27:24;-5.40;99.90
9219;DHT22;4644;48.858;9.184;2024-01-11T07:29:51;-5.40;99.90
9219;DHT22;4644;48.858;9.184;2024-01-11T07:32:18;-5.40;99.90
9219;DHT22;4644;48.858;9.184;2024-01-11T07:34:46;-5.40;99.90
9219;DHT22;4644;48.858;9.184;2024-01-11T07:37:14;-5.30;99.90
9219;DHT22;4644;48.858;9.184;2024-01-11T07:39:41;-5.30;99.90
9219;DHT22;4644;48.858;9.184;2024-01-11T07:42:08;-5.30;99.90
9219;DHT22;4644;48.858;9.184;2024-01-11T07:44:34;-5.30;99.90
9219;DHT22;4644;48.858;9.184;2024-01-11T07:47:01;-5.30;99.90
9219;DHT22;4644;48.858;9.184;2024-01-11T07:49:28;-5.20;99.90
9219;DHT22;4644;48.858;9.184;2024-01-11T07:51:57;-5.20;99.90
9219;DHT22;4644;48.858;9.184;2024-01-11T07:54:25;-5.20;99.90
9219;DHT22;4644;48.858;9.184;2024-01-11T07:56:51;-5.20;99.90
9219;DHT22;4644;48.858;9.184;2024-01-11T07:59:17;-5.10;99.90
9219;DHT22;4644;48.858;9.184;2024-01-11T08:01:44;-5.10;99.90
9219;DHT22;4644;48.858;9.184;2024-01-11T08:04:11;-5.10;99.90
9219;DHT22;4644;48.858;9.184;2024-01-11T08:06:38;-5.00;99.90
9219;DHT22;4644;48.858;9.184;2024-01-11T08:09:06;-5.00;99.90
9219;DHT22;4644;48.858;9.184;2024-01-11T08:11:35;-5.00;99.90
9219;DHT22;4644;48.858;9.184;2024-01-11T08:14:02;-5.00;99.90
9219;DHT22;4644;48.858;9.184;2024-01-11T08:16:30;-5.00;99.90
9219;DHT22;4644;48.858;9.184;2024-01-11T08:18:57;-4.90;99.90
9219;DHT22;4644;48.858;9.184;2024-01-11T08:21:26;-4.90;99.90
9219;DHT22;4644;48.858;9.184;2024-01-11T08:23:53;-5.00;99.90
9219;DHT22;4644;48.858;9.184;2024-01-11T08:26:22;-4.80;99.90
9219;DHT22;4644;48.858;9.184;2024-01-11T08:28:49;-4.90;99.90
9219;DHT22;4644;48.858;9.184;2024-01-11T08:31:16;-4.90;99.90
9219;DHT22;4644;48.858;9.184;2024-01-11T08:33:42;-4.80;99.90
9219;DHT22;4644;48.858;9.184;2024-01-11T08:36:09;-4.80;99.90
9219;DHT22;4644;48.858;9.184;2024-01-11T08:38:37;-4.70;99.90
9219;DHT22;4644;48.858;9.184;2024-01-11T08:41:04;-4.60;99.90
9219;DHT22;4644;48.858;9.184;2024-01-11T08:43:33;-4.50;99.90
9219;DHT22;4644;48.858;9.184;2024-01-11T08:46:00;-4.30;99.90
9219;DHT22;4644;48.858;9.184;2024-01-11T08:48:27;-4.20;99.90
9219;DHT22;4644;48.858;9.184;2024-01-11T08:50:54;-4.10;99.90
9219;DHT22;4644;48.858;9.184;2024-01-11T08:53:21;-4.00;99.90
9219;DHT22;4644;48.858;9.184;2024-01-11T08:55:48;-3.80;99.90
9219;DHT22;4644;48.858;9.184;2024-01-11T08:58:15;-3.80;99.90
9219;DHT22;4644;48.858;9.184;2024-01-11T09:00:43;-3.80;99.90
9219;DHT22;4644;48.858;9.184;2024-01-11T09:03:10;-3.80;99.90
9219;DHT22;4644;48.858;9.184;2024-01-11T09:05:39;-3.60;99.90
9219;DHT22;4644;48.858;9.184;2024-01-11T09:08:06;-3.40;99.90
9219;DHT22;4644;48.858;9.184;2024-01-11T09:10:33;-3.40;99.90
9219;DHT22;4644;48.858;9.184;2024-01-11T09:13:00;-3.30;99.90
9219;DHT22;4644;48.858;9.184;2024-01-11T09:15:27;-3.10;99.90
9219;DHT22;4644;48.858;9.184;2024-01-11T09:17:55;-2.90;99.90
9219;DHT22;4644;48.858;9.184;2024-01-11T09:20:22;-2.90;99.90
9219;DHT22;4644;48.858;9.184;2024-01-11T09:22:49;-2.70;99.90
9219;DHT22;4644;48.858;9.184;2024-01-11T09:25:16;-2.60;99.90
9219;DHT22;4644;48.858;9.184;2024-01-11T09:27:43;-2.60;99.90
9219;DHT22;4644;48.858;9.184;2024-01-11T09:30:11;-2.60;99.90
9219;DHT22;4644;48.858;9.184;2024-01-11T09:32:37;-2.50;99.90
9219;DHT22;4644;48.858;9.184;2024-01-11T09:35:06;-2.40;99.90
9219;DHT22;4644;48.858;9.184;2024-01-11T09:37:34;-2.20;99.90
9219;DHT22;4644;48.858;9.184;2024-01-11T09:40:01;-2.30;99.90
9219;DHT22;4644;48.858;9.184;2024-01-11T09:42:29;-2.30;99.90
9219;DHT22;4644;48.858;9.184;2024-01-11T09:44:56;-2.30;99.90
9219;DHT22;4644;48.858;9.184;2024-01-11T09:47:24;-2.20;99.90
9219;DHT22;4644;48.858;9.184;2024-01-11T09:49:55;-2.10;99.90
9219;DHT22;4644;48.858;9.184;2024-01-11T09:52:26;-2.00;99.90
9219;DHT22;4644;48.858;9.184;2024-01-11T09:54:53;-1.90;99.90
9219;DHT22;4644;48.858;9.184;2024-01-11T09:57:24;-1.80;99.90
9219;DHT22;4644;48.858;9.184;2024-01-11T09:59:56;-1.70;99.90
9219;DHT22;4644;48.858;9.184;2024-01-11T10:02:23;-1.60;99.90
9219;DHT22;4644;48.858;9.184;2024-01-11T10:04:52;-1.60;99.90
9219;DHT22;4644;48.858;9.184;2024-01-11T10:07:21;-1.60;99.90
9219;DHT22;4644;48.858;9.184;2024-01-11T10:09:49;-1.80;99.90
9219;DHT22;4644;48.858;9.184;2024-01-11T10:12:17;-1.50;99.90
9219;DHT22;4644;48.858;9.184;2024-01-11T10:14:46;-1.40;99.90
9219;DHT22;4644;48.858;9.184;2024-01-11T10:17:13;-1.30;99.90
9219;DHT22;4644;48.858;9.184;2024-01-11T10:19:39;-1.10;99.90
9219;DHT22;4644;48.858;9.184;2024-01-11T10:22:06;-1.20;99.90
9219;DHT22;4644;48.858;9.184;2024-01-11T10:24:38;-1.60;99.90
9219;DHT22;4644;48.858;9.184;2024-01-11T10:27:08;-1.80;99.90
9219;DHT22;4644;48.858;9.184;2024-01-11T10:29:36;-1.70;99.90
9219;DHT22;4644;48.858;9.184;2024-01-11T10:32:03;-1.80;99.90
9219;DHT22;4644;48.858;9.184;2024-01-11T10:34:30;-1.70;99.90
9219;DHT22;4644;48.858;9.184;2024-01-11T10:36:57;-1.80;99.90
9219;DHT22;4644;48.858;9.184;2024-01-11T10:39:25;-1.70;99.90
9219;DHT22;4644;48.858;9.184;2024-01-11T10:42:06;-1.40;99.90
9219;DHT22;4644;48.858;9.184;2024-01-11T10:44:35;-1.10;99.90
9219;DHT22;4644;48.858;9.184;2024-01-11T10:47:03;-1.00;99.90
9219;DHT22;4644;48.858;9.184;2024-01-11T10:49:32;-1.10;99.90
9219;DHT22;4644;48.858;9.184;2024-01-11T10:52:02;-1.00;99.90
9219;DHT22;4644;48.858;9.184;2024-01-11T10:54:29;-1.00;99.90
9219;DHT22;4644;48.858;9.184;2024-01-11T10:56:58;-1.00;99.90
9219;DHT22;4644;48.858;9.184;2024-01-11T10:59:27;-1.00;99.90
9219;DHT22;4644;48.858;9.184;2024-01-11T11:01:57;-0.90;99.90
9219;DHT22;4644;48.858;9.184;2024-01-11T11:04:25;-0.80;99.90
9219;DHT22;4644;48.858;9.184;2024-01-11T11:06:55;-0.90;99.90
9219;DHT22;4644;48.858;9.184;2024-01-11T11:09:22;-0.90;99.90
9219;DHT22;4644;48.858;9.184;2024-01-11T11:11:49;-0.80;99.90
9219;DHT22;4644;48.858;9.184;2024-01-11T11:14:17;-0.80;99.90
9219;DHT22;4644;48.858;9.184;2024-01-11T11:16:46;-0.80;99.90
9219;DHT22;4644;48.858;9.184;2024-01-11T11:19:14;-0.60;99.90
9219;DHT22;4644;48.858;9.184;2024-01-11T11:21:44;-0.40;99.90
9219;DHT22;4644;48.858;9.184;2024-01-11T11:24:12;-0.30;99.90
9219;DHT22;4644;48.858;9.184;2024-01-11T11:26:39;-0.10;99.90
9219;DHT22;4644;48.858;9.184;2024-01-11T11:29:06;0.00;99.90
9219;DHT22;4644;48.858;9.184;2024-01-11T11:31:35;0.10;99.90
9219;DHT22;4644;48.858;9.184;2024-01-11T11:34:05;0.10;99.90
9219;DHT22;4644;48.858;9.184;2024-01-11T11:36:33;0.30;99.90
9219;DHT22;4644;48.858;9.184;2024-01-11T11:39:01;0.50;99.90
9219;DHT22;4644;48.858;9.184;2024-01-11T11:41:30;0.70;99.90
9219;DHT22;4644;48.858;9.184;2024-01-11T11:44:00;0.80;99.90
9219;DHT22;4644;48.858;9.184;2024-01-11T11:46:27;0.90;99.90
9219;DHT22;4644;48.858;9.184;2024-01-11T11:48:54;0.90;99.90
9219;DHT22;4644;48.858;9.184;2024-01-11T11:51:24;1.00;99.90
9219;DHT22;4644;48.858;9.184;2024-01-11T11:53:52;1.00;99.90
9219;DHT22;4644;48.858;9.184;2024-01-11T11:56:20;1.10;99.90
9219;DHT22;4644;48.858;9.184;2024-01-11T11:58:48;1.20;99.90
9219;DHT22;4644;48.858;9.184;2024-01-11T12:01:16;1.30;99.90
9219;DHT22;4644;48.858;9.184;2024-01-11T12:03:44;1.30;99.90
9219;DHT22;4644;48.858;9.184;2024-01-11T12:06:15;1.40;99.90
9219;DHT22;4644;48.858;9.184;2024-01-11T12:08:44;1.60;99.90
9219;DHT22;4644;48.858;9.184;2024-01-11T12:11:13;1.80;99.90
9219;DHT22;4644;48.858;9.184;2024-01-11T12:13:40;1.90;99.90
9219;DHT22;4644;48.858;9.184;2024-01-11T12:16:09;1.90;99.90
9219;DHT22;4644;48.858;9.184;2024-01-11T12:18:36;1.90;99.90
9219;DHT22;4644;48.858;9.184;2024-01-11T12:21:03;2.00;99.90
9219;DHT22;4644;48.858;9.184;2024-01-11T12:23:30;2.10;99.90
9219;DHT22;4644;48.858;9.184;2024-01-11T12:26:01;2.20;99.90
9219;DHT22;4644;48.858;9.184;2024-01-11T12:28:28;2.20;99.90
9219;DHT22;4644;48.858;9.184;2024-01-11T12:30:56;2.10;99.90
9219;DHT22;4644;48.858;9.184;2024-01-11T12:33:22;1.90;99.90
9219;DHT22;4644;48.858;9.184;2024-01-11T12:35:50;1.50;99.90
9219;DHT22;4644;48.858;9.184;2024-01-11T12:38:17;1.10;99.90
9219;DHT22;4644;48.858;9.184;2024-01-11T12:40:46;0.90;99.90
9219;DHT22;4644;48.858;9.184;2024-01-11T12:43:15;0.70;99.90
9219;DHT22;4644;48.858;9.184;2024-01-11T12:45:43;0.50;99.90
9219;DHT22;4644;48.858;9.184;2024-01-11T12:48:10;0.40;99.90
9219;DHT22;4644;48.858;9.184;2024-01-11T12:50:39;0.30;99.90
9219;DHT22;4644;48.858;9.184;2024-01-11T12:53:07;0.30;99.90
9219;DHT22;4644;48.858;9.184;2024-01-11T12:55:35;0.40;99.90
9219;DHT22;4644;48.858;9.184;2024-01-11T12:58:06;0.40;99.90
9219;DHT22;4644;48.858;9.184;2024-01-11T13:00:36;0.40;99.90
9219;DHT22;4644;48.858;9.184;2024-01-11T13:03:04;0.40;99.90
9219;DHT22;4644;48.858;9.184;2024-01-11T13:05:31;0.40;99.90
9219;DHT22;4644;48.858;9.184;2024-01-11T13:08:00;0.40;99.90
9219;DHT22;4644;48.858;9.184;2024-01-11T13:10:28;0.30;99.90
9219;DHT22;4644;48.858;9.184;2024-01-11T13:12:58;0.40;99.90
9219;DHT22;4644;48.858;9.184;2024-01-11T13:15:25;0.30;99.90
9219;DHT22;4644;48.858;9.184;2024-01-11T13:17:53;0.30;99.90
9219;DHT22;4644;48.858;9.184;2024-01-11T13:20:20;0.30;99.90
9219;DHT22;4644;48.858;9.184;2024-01-11T13:22:47;0.30;99.90
9219;DHT22;4644;48.858;9.184;2024-01-11T13:25:14;0.30;99.90
9219;DHT22;4644;48.858;9.184;2024-01-11T13:27:41;0.30;99.90
9219;DHT22;4644;48.858;9.184;2024-01-11T13:30:08;0.40;99.90
9219;DHT22;4644;48.858;9.184;2024-01-11T13:32:34;0.40;99.90
9219;DHT22;4644;48.858;9.184;2024-01-11T13:35:03;0.50;99.90
9219;DHT22;4644;48.858;9.184;2024-01-11T13:37:31;0.50;99.90
9219;DHT22;4644;48.858;9.184;2024-01-11T13:39:57;0.60;99.90
9219;DHT22;4644;48.858;9.184;2024-01-11T13:42:24;0.60;99.90
9219;DHT22;4644;48.858;9.184;2024-01-11T13:44:51;0.50;99.90
9219;DHT22;4644;48.858;9.184;2024-01-11T13:47:18;0.50;99.90
9219;DHT22;4644;48.858;9.184;2024-01-11T13:49:45;0.50;99.90
9219;DHT22;4644;48.858;9.184;2024-01-11T13:52:14;0.50;99.90
9219;DHT22;4644;48.858;9.184;2024-01-11T13:54:40;0.40;99.90
9219;DHT22;4644;48.858;9.184;2024-01-11T13:57:07;0.30;99.90
9219;DHT22;4644;48.858;9.184;2024-01-11T13:59:34;0.30;99.90
9219;DHT22;4644;48.858;9.184;2024-01-11T14:02:01;0.40;99.90
9219;DHT22;4644;48.858;9.184;2024-01-11T14:04:29;0.30;99.90
9219;DHT22;4644;48.858;9.184;2024-01-11T14:06:56;0.30;99.90
9219;DHT22;4644;48.858;9.184;2024-01-11T14:09:24;0.30;99.90
9219;DHT22;4644;48.858;9.184;2024-01-11T14:11:51;0.30;99.90
9219;DHT22;4644;48.858;9.184;2024-01-11T14:14:18;0.20;99.90
9219;DHT22;4644;48.858;9.184;2024-01-11T14:16:47;0.20;99.90
9219;DHT22;4644;48.858;9.184;2024-01-11T14:19:14;0.20;99.90
9219;DHT22;4644;48.858;9.184;2024-01-11T14:21:41;0.10;99.90
9219;DHT22;4644;48.858;9.184;2024-01-11T14:24:10;0.20;99.90
9219;DHT22;4644;48.858;9.184;2024-01-11T14:26:38;0.10;99.90
9219;DHT22;4644;48.858;9.184;2024-01-11T14:29:06;0.10;99.90
9219;DHT22;4644;48.858;9.184;2024-01-11T14:31:32;0.10;99.90
9219;DHT22;4644;48.858;9.184;2024-01-11T14:33:59;0.10;99.90
9219;DHT22;4644;48.858;9.184;2024-01-11T14:36:26;0.00;99.90
9219;DHT22;4644;48.858;9.184;2024-01-11T14:38:53;0.00;99.90
9219;DHT22;4644;48.858;9.184;2024-01-11T14:41:20;0.00;99.90
9219;DHT22;4644;48.858;9.184;2024-01-11T14:43:48;-0.10;99.90
9219;DHT22;4644;48.858;9.184;2024-01-11T14:46:15;-0.10;99.90
9219;DHT22;4644;48.858;9.184;2024-01-11T14:48:42;-0.10;99.90
9219;DHT22;4644;48.858;9.184;2024-01-11T14:51:10;-0.10;99.90
9219;DHT22;4644;48.858;9.184;2024-01-11T14:53:37;-0.20;99.90
9219;DHT22;4644;48.858;9.184;2024-01-11T14:56:04;-0.20;99.90
9219;DHT22;4644;48.858;9.184;2024-01-11T14:58:31;-0.30;99.90
9219;DHT22;4644;48.858;9.184;2024-01-11T15:00:59;-0.30;99.90
9219;DHT22;4644;48.858;9.184;2024-01-11T15:03:26;-0.40;99.90
9219;DHT22;4644;48.858;9.184;2024-01-11T15:05:53;-0.40;99.90
9219;DHT22;4644;48.858;9.184;2024-01-11T15:08:20;-0.40;99.90
9219;DHT22;4644;48.858;9.184;2024-01-11T15:10:47;-0.40;99.90
9219;DHT22;4644;48.858;9.184;2024-01-11T15:13:15;-0.50;99.90
9219;DHT22;4644;48.858;9.184;2024-01-11T15:15:42;-0.50;99.90
9219;DHT22;4644;48.858;9.184;2024-01-11T15:18:10;-0.50;99.90
9219;DHT22;4644;48.858;9.184;2024-01-11T15:20:37;-0.60;99.90
9219;DHT22;4644;48.858;9.184;2024-01-11T15:23:03;-0.60;99.90
9219;DHT22;4644;48.858;9.184;2024-01-11T15:25:30;-0.60;99.90
9219;DHT22;4644;48.858;9.184;2024-01-11T15:27:57;-0.60;99.90
9219;DHT22;4644;48.858;9.184;2024-01-11T15:30:24;-0.70;99.90
9219;DHT22;4644;48.858;9.184;2024-01-11T15:32:52;-0.70;99.90
9219;DHT22;4644;48.858;9.184;2024-01-11T15:35:20;-0.70;99.90
9219;DHT22;4644;48.858;9.184;2024-01-11T15:37:47;-0.80;99.90
9219;DHT22;4644;48.858;9.184;2024-01-11T15:40:14;-0.80;99.90
9219;DHT22;4644;48.858;9.184;2024-01-11T15:42:40;-0.90;99.90
9219;DHT22;4644;48.858;9.184;2024-01-11T15:45:08;-0.90;99.90
9219;DHT22;4644;48.858;9.184;2024-01-11T15:47:36;-1.00;99.90
9219;DHT22;4644;48.858;9.184;2024-01-11T15:50:04;-1.00;99.90
9219;DHT22;4644;48.858;9.184;2024-01-11T15:52:36;-1.00;99.90
9219;DHT22;4644;48.858;9.184;2024-01-11T15:55:03;-1.10;99.90
9219;DHT22;4644;48.858;9.184;2024-01-11T15:57:30;-1.10;99.90
9219;DHT22;4644;48.858;9.184;2024-01-11T15:59:57;-1.20;99.90
9219;DHT22;4644;48.858;9.184;2024-01-11T16:02:24;-1.30;99.90
9219;DHT22;4644;48.858;9.184;2024-01-11T16:04:51;-1.30;99.90